createdAt,value
2023-08-20T00:02:43.126Z,21.40
2023-08-20T00:07:44.675Z,21.30
2023-08-20T00:12:46.262Z,21.30
2023-08-20T00:17:47.857Z,21.20
2023-08-20T00:22:49.476Z,21.10
2023-08-20T00:27:51.014Z,21.10
2023-08-20T00:32:52.913Z,21.10
2023-08-20T00:37:54.509Z,21.00
2023-08-20T00:42:56.147Z,21.00
2023-08-20T00:47:57.892Z,20.90
2023-08-20T00:52:59.460Z,20.90
2023-08-20T00:58:00.975Z,20.80
2023-08-20T01:03:02.625Z,20.80
2023-08-20T01:08:04.187Z,20.70
2023-08-20T01:13:05.820Z,20.60
2023-08-20T01:18:07.537Z,20.60
2023-08-20T01:23:09.150Z,20.60
2023-08-20T01:28:10.672Z,20.50
2023-08-20T01:33:12.256Z,20.50
2023-08-20T01:38:13.805Z,20.50
2023-08-20T01:43:15.387Z,20.50
2023-08-20T01:48:16.952Z,20.40
2023-08-20T01:53:18.557Z,20.30
2023-08-20T01:58:20.134Z,20.20
2023-08-20T02:03:21.649Z,20.20
2023-08-20T02:08:23.242Z,20.10
2023-08-20T02:13:24.825Z,20.00
2023-08-20T02:18:26.500Z,20.00
2023-08-20T02:23:28.287Z,20.00
2023-08-20T02:28:29.889Z,20.00
2023-08-20T02:33:31.483Z,19.90
2023-08-20T02:38:33.068Z,19.90
2023-08-20T02:43:34.782Z,19.80
2023-08-20T02:48:36.551Z,19.80
2023-08-20T02:53:38.079Z,19.70
2023-08-20T02:58:39.656Z,19.60
2023-08-20T03:03:41.241Z,19.60
2023-08-20T03:08:42.821Z,19.50
2023-08-20T03:13:44.430Z,19.50
2023-08-20T03:18:45.945Z,19.50
2023-08-20T03:23:47.472Z,19.40
2023-08-20T03:28:49.130Z,19.40
2023-08-20T03:33:50.672Z,19.30
2023-08-20T03:38:52.568Z,19.20
2023-08-20T03:43:54.093Z,19.20
2023-08-20T03:48:55.660Z,19.20
2023-08-20T03:53:57.304Z,19.20
2023-08-20T03:58:58.911Z,19.10
2023-08-20T04:04:00.646Z,19.10
2023-08-20T04:09:02.180Z,19.20
2023-08-20T04:14:03.796Z,19.20
2023-08-20T04:19:05.381Z,19.20
2023-08-20T04:24:07.286Z,19.30
2023-08-20T04:29:08.892Z,19.30
2023-08-20T04:34:10.523Z,19.40
2023-08-20T04:39:12.268Z,19.50
2023-08-20T04:44:14.023Z,19.50
2023-08-20T04:49:15.855Z,19.60
2023-08-20T04:54:17.623Z,19.70
2023-08-20T04:59:19.144Z,19.80
2023-08-20T05:04:20.746Z,19.90
2023-08-20T05:09:22.641Z,20.10
2023-08-20T05:14:24.412Z,20.30
2023-08-20T05:19:26.150Z,20.60
2023-08-20T05:24:27.738Z,22.10
2023-08-20T05:29:29.288Z,23.20
2023-08-20T05:34:31.101Z,24.20
2023-08-20T05:39:32.677Z,24.80
2023-08-20T05:44:34.253Z,25.10
2023-08-20T05:49:35.848Z,25.50
2023-08-20T05:54:37.395Z,26.10
2023-08-20T05:59:39.002Z,26.50
2023-08-20T06:04:40.570Z,27.00
2023-08-20T06:09:42.109Z,27.40
2023-08-20T06:14:43.831Z,28.00
2023-08-20T06:19:45.382Z,28.40
2023-08-20T06:24:46.961Z,28.70
2023-08-20T06:29:48.707Z,29.10
2023-08-20T06:34:50.241Z,29.60
2023-08-20T06:39:51.807Z,30.20
2023-08-20T06:44:53.374Z,30.50
2023-08-20T06:49:54.910Z,30.50
2023-08-20T06:54:56.483Z,30.50
2023-08-20T06:59:58.101Z,30.70
2023-08-20T07:04:59.884Z,31.10
2023-08-20T07:10:01.481Z,31.50
2023-08-20T07:15:03.044Z,31.90
2023-08-20T07:20:04.796Z,32.50
2023-08-20T07:25:06.311Z,32.50
2023-08-20T07:30:07.839Z,32.30
2023-08-20T07:35:12.073Z,32.30
2023-08-20T07:40:16.516Z,32.50
2023-08-20T07:45:18.259Z,33.10
2023-08-20T07:50:20.033Z,33.40
2023-08-20T07:55:21.574Z,33.60
2023-08-20T08:00:23.114Z,33.90
2023-08-20T08:05:24.638Z,34.30
2023-08-20T08:10:26.162Z,34.70
2023-08-20T08:15:27.678Z,34.90
2023-08-20T08:20:29.265Z,35.10
2023-08-20T08:25:30.835Z,35.60
2023-08-20T08:30:32.397Z,36.20
2023-08-20T08:35:33.909Z,36.40
2023-08-20T08:40:35.450Z,36.70
2023-08-20T08:45:36.977Z,36.60
2023-08-20T08:50:38.496Z,35.90
2023-08-20T08:55:42.522Z,35.80
2023-08-20T09:00:45.312Z,35.50
2023-08-20T09:05:46.858Z,35.10
2023-08-20T09:10:48.391Z,35.00
2023-08-20T09:15:49.914Z,34.60
2023-08-20T09:20:51.435Z,34.30
2023-08-20T09:25:52.956Z,34.30
2023-08-20T09:30:54.488Z,34.50
2023-08-20T09:35:56.141Z,34.60
2023-08-20T09:40:57.719Z,34.60
2023-08-20T09:45:59.365Z,34.70
2023-08-20T09:51:00.910Z,34.60
2023-08-20T09:56:02.454Z,34.60
2023-08-20T10:01:04.105Z,34.50
2023-08-20T10:06:05.612Z,34.30
2023-08-20T10:11:07.131Z,34.40
2023-08-20T10:16:08.733Z,34.30
2023-08-20T10:21:10.352Z,34.10
2023-08-20T10:26:11.905Z,34.10
2023-08-20T10:31:13.708Z,34.50
2023-08-20T10:36:15.317Z,34.50
2023-08-20T10:41:16.873Z,34.70
2023-08-20T10:46:18.602Z,34.80
2023-08-20T10:51:20.421Z,35.00
2023-08-20T10:56:21.970Z,34.90
2023-08-20T11:01:23.593Z,35.30
2023-08-20T11:06:25.166Z,35.60
2023-08-20T11:11:26.692Z,35.80
2023-08-20T11:16:28.284Z,35.90
2023-08-20T11:21:30.900Z,36.00
2023-08-20T11:26:32.417Z,36.00
2023-08-20T11:31:34.193Z,36.20
2023-08-20T11:36:35.721Z,36.20
2023-08-20T11:41:37.238Z,36.10
2023-08-20T11:46:38.825Z,36.20
2023-08-20T11:51:40.400Z,36.20
2023-08-20T11:56:41.948Z,36.10
2023-08-20T12:01:43.494Z,36.30
2023-08-20T12:06:46.260Z,36.40
2023-08-20T12:11:51.571Z,36.60
2023-08-20T12:16:53.168Z,36.90
2023-08-20T12:21:54.782Z,36.90
2023-08-20T12:26:56.337Z,36.50
2023-08-20T12:31:57.881Z,36.70
2023-08-20T12:36:59.397Z,36.90
2023-08-20T12:42:00.992Z,37.20
2023-08-20T12:47:02.638Z,37.30
2023-08-20T12:52:04.196Z,37.40
2023-08-20T12:57:05.747Z,37.50
2023-08-20T13:02:07.312Z,37.60
2023-08-20T13:07:08.848Z,37.60
2023-08-20T13:12:10.421Z,37.50
2023-08-20T13:17:11.953Z,37.20
2023-08-20T13:22:13.472Z,36.90
2023-08-20T13:27:15.014Z,36.70
2023-08-20T13:32:16.566Z,36.60
2023-08-20T13:37:18.083Z,36.60
2023-08-20T13:42:20.880Z,36.40
2023-08-20T13:47:23.719Z,36.60
2023-08-20T13:52:25.281Z,36.90
2023-08-20T13:57:26.845Z,36.90
2023-08-20T14:02:28.728Z,36.90
2023-08-20T14:07:30.280Z,37.10
2023-08-20T14:12:31.845Z,37.20
2023-08-20T14:17:33.691Z,37.40
2023-08-20T14:22:35.506Z,37.70
2023-08-20T14:27:37.303Z,37.90
2023-08-20T14:32:41.023Z,38.10
2023-08-20T14:37:43.255Z,38.10
2023-08-20T14:42:45.084Z,37.80
2023-08-20T14:47:46.652Z,37.50
2023-08-20T14:52:48.231Z,37.40
2023-08-20T14:57:51.896Z,37.30
2023-08-20T15:02:54.207Z,37.20
2023-08-20T15:07:55.802Z,37.10
2023-08-20T15:12:57.311Z,37.00
2023-08-20T15:17:58.882Z,36.90
2023-08-20T15:23:00.464Z,36.80
2023-08-20T15:28:02.276Z,36.70
2023-08-20T15:33:03.829Z,36.80
2023-08-20T15:38:05.380Z,36.90
2023-08-20T15:43:06.926Z,36.90
2023-08-20T15:48:08.531Z,37.00
2023-08-20T15:53:10.126Z,36.90
2023-08-20T15:58:11.693Z,36.80
2023-08-20T16:03:13.486Z,36.50
2023-08-20T16:08:15.181Z,36.30
2023-08-20T16:13:16.711Z,36.10
2023-08-20T16:18:18.298Z,35.90
2023-08-20T16:23:19.878Z,35.70
2023-08-20T16:28:21.443Z,35.50
2023-08-20T16:33:23.064Z,35.40
2023-08-20T16:38:24.675Z,35.20
2023-08-20T16:43:26.248Z,35.00
2023-08-20T16:48:27.768Z,34.90
2023-08-20T16:53:29.599Z,34.70
2023-08-20T16:58:31.309Z,34.70
2023-08-20T17:03:33.189Z,34.70
2023-08-20T17:08:34.756Z,34.70
2023-08-20T17:13:36.544Z,34.70
2023-08-20T17:18:38.581Z,34.60
2023-08-20T17:23:40.116Z,34.40
2023-08-20T17:28:41.783Z,33.80
2023-08-20T17:33:44.142Z,33.50
2023-08-20T17:38:46.610Z,33.30
2023-08-20T17:43:48.195Z,33.00
2023-08-20T17:48:49.729Z,32.60
2023-08-20T17:53:51.352Z,32.30
2023-08-20T17:58:52.892Z,32.00
2023-08-20T18:03:54.438Z,31.60
2023-08-20T18:08:56.002Z,31.30
2023-08-20T18:13:57.546Z,30.90
2023-08-20T18:18:59.092Z,30.40
2023-08-20T18:24:00.653Z,30.10
2023-08-20T18:29:02.255Z,29.90
2023-08-20T18:34:03.818Z,29.70
2023-08-20T18:39:05.396Z,29.50
2023-08-20T18:44:06.986Z,29.40
2023-08-20T18:49:08.598Z,29.20
2023-08-20T18:54:10.166Z,28.90
2023-08-20T18:59:11.684Z,28.70
2023-08-20T19:04:13.235Z,28.60
2023-08-20T19:09:14.771Z,28.40
2023-08-20T19:14:16.301Z,28.40
2023-08-20T19:19:17.845Z,28.20
2023-08-20T19:24:19.397Z,27.90
2023-08-20T19:29:20.990Z,27.70
2023-08-20T19:34:22.645Z,27.60
2023-08-20T19:39:24.177Z,27.40
2023-08-20T19:44:25.945Z,27.30
2023-08-20T19:49:27.474Z,27.30
2023-08-20T19:54:29.009Z,27.30
2023-08-20T19:59:30.689Z,27.20
2023-08-20T20:04:32.275Z,26.90
2023-08-20T20:09:33.962Z,26.60
2023-08-20T20:14:35.523Z,26.30
2023-08-20T20:19:37.064Z,26.10
2023-08-20T20:24:38.588Z,26.10
2023-08-20T20:29:40.125Z,25.90
2023-08-20T20:34:41.663Z,25.80
2023-08-20T20:39:55.756Z,25.60
2023-08-20T20:44:57.312Z,25.50
2023-08-20T20:49:58.860Z,25.40
2023-08-20T20:55:00.471Z,25.40
2023-08-20T21:00:02.019Z,25.30
2023-08-20T21:05:03.611Z,25.30
2023-08-20T21:10:05.169Z,25.20
2023-08-20T21:15:06.780Z,25.20
2023-08-20T21:20:08.314Z,25.20
2023-08-20T21:25:09.904Z,25.20
2023-08-20T21:30:12.463Z,25.10
2023-08-20T21:35:15.413Z,25.00
2023-08-20T21:40:17.095Z,25.00
2023-08-20T21:45:18.612Z,25.00
2023-08-20T21:50:20.152Z,24.90
2023-08-20T21:55:21.872Z,24.80
2023-08-20T22:00:23.431Z,24.70
2023-08-20T22:05:25.006Z,24.50
2023-08-20T22:10:26.538Z,24.40
2023-08-20T22:15:28.104Z,24.40
2023-08-20T22:20:29.615Z,24.40
2023-08-20T22:25:31.243Z,24.30
2023-08-20T22:30:32.798Z,24.20
2023-08-20T22:35:35.222Z,24.10
2023-08-20T22:40:36.972Z,24.00
2023-08-20T22:45:38.577Z,24.00
2023-08-20T22:50:40.411Z,23.90
2023-08-20T22:55:41.942Z,23.80
2023-08-20T23:00:43.471Z,23.80
2023-08-20T23:05:44.994Z,23.70
2023-08-20T23:10:47.293Z,23.60
2023-08-20T23:15:48.852Z,23.60
2023-08-20T23:20:50.376Z,23.50
2023-08-20T23:25:51.895Z,23.40
2023-08-20T23:30:53.543Z,23.40
2023-08-20T23:35:55.113Z,23.40
2023-08-20T23:40:56.659Z,23.30
2023-08-20T23:45:58.235Z,23.30
2023-08-20T23:50:59.825Z,23.20
2023-08-20T23:56:01.404Z,23.10
